METAR AND TAF INFORMATION
METAR FOR LGTG
ADDS - METARS form results

(1312 UTC 21 April 2019)
Data provider http://aviationweather.gov/metar/data/
 
Forecast for: LGTG (TANAGRA AIRPORT , GR)
Text: TAF LGTG 211100Z 2112/2121 33006KT 9999 FEW025
Forecast period: 1200 to 2100 UTC 21 April 2019
Forecast type: FROM: standard forecast or significant change
Winds: from the NNW (330 degrees) at 7 MPH (6 knots; 3.1 m/s)
Visibility: 6 or more miles 10+ km)
Ceiling: at least 12,000 feet AGL
Clouds: few clouds at 2500 feet AGL
Weather: no significant weather forecast for this period

 ΧΑΡΤΗΣ ΑΕΡΟΔΡΟΜΙΟΥ

 RUNWAY INFORMATION
Διάδρομος 10 Runway length 9810 ft Runway width 148 ft
Runway elevation 483 ft Runway displaced threshold 492 ft Runway heading 105
Διάδρομος 28 Runway length 9810 ft Runway width 148 ft
Runway elevation 459 ft Runway displaced threshold 0 ft Runway heading 285

 ΣΥΧΝΟΤΗΤΕΣ ΑΕΡΟΔΡΟΜΙΟΥ
Τύπος APP Όνομα APP Συχνότητα 120.25 MHZ
Τύπος TWR Όνομα TWR Συχνότητα 120.25 MHZ

 AIRPORT NEAR NAVIGATION AIDS
Τύπος VOR-DME Όνομα Tanagra Συχνότητα 111800 KHZ
Τύπος TACAN Όνομα Tanagra Συχνότητα 108400 KHZ
Τύπος NDB Όνομα Tanagra Συχνότητα 303 KHZ



Hellenic Air Force Virtual - All rights reserved 2019 - Powered by VAM